createdAt,value
2018-12-15T00:01:41.596Z,2.28
2018-12-15T00:02:41.640Z,2.26
2018-12-15T00:04:34.615Z,2.31
2018-12-15T00:05:34.668Z,2.25
2018-12-15T00:07:27.651Z,2.29
2018-12-15T00:08:27.694Z,2.36
2018-12-15T00:10:20.681Z,2.33
2018-12-15T00:11:20.731Z,2.28
2018-12-15T00:13:13.735Z,2.28
2018-12-15T00:14:13.755Z,2.38
2018-12-15T00:16:06.737Z,2.24
2018-12-15T00:17:06.790Z,2.25
2018-12-15T00:18:59.770Z,2.26
2018-12-15T00:19:59.824Z,2.28
2018-12-15T00:21:52.850Z,2.32
2018-12-15T00:22:52.866Z,2.25
2018-12-15T00:24:45.828Z,2.22
2018-12-15T00:25:45.879Z,2.25
2018-12-15T00:27:38.858Z,2.29
2018-12-15T00:28:38.903Z,2.29
2018-12-15T00:30:31.885Z,2.20
2018-12-15T00:31:31.936Z,2.24
2018-12-15T00:33:24.919Z,2.32
2018-12-15T00:34:24.983Z,2.25
2018-12-15T00:36:17.951Z,2.25
2018-12-15T00:37:18.004Z,2.20
2018-12-15T00:39:10.959Z,2.24
2018-12-15T00:40:11.998Z,2.24
2018-12-15T00:42:04.015Z,2.26
2018-12-15T00:43:04.046Z,2.26
2018-12-15T00:44:57.555Z,2.29
2018-12-15T00:45:57.082Z,2.28
2018-12-15T00:47:50.072Z,2.28
2018-12-15T00:48:50.093Z,2.31
2018-12-15T00:50:43.061Z,2.22
2018-12-15T00:51:43.129Z,2.20
2018-12-15T00:53:36.090Z,2.24
2018-12-15T00:54:36.138Z,2.26
2018-12-15T00:56:29.123Z,2.22
2018-12-15T00:57:29.182Z,2.24
2018-12-15T00:59:22.144Z,2.17
2018-12-15T01:00:22.200Z,2.22
2018-12-15T01:02:15.178Z,2.28
2018-12-15T01:03:15.224Z,2.24
2018-12-15T01:05:08.211Z,2.25
2018-12-15T01:06:08.263Z,2.29
2018-12-15T01:08:01.244Z,2.26
2018-12-15T01:09:01.290Z,2.29
2018-12-15T01:10:54.261Z,2.25
2018-12-15T01:11:54.309Z,2.28
2018-12-15T01:13:47.285Z,2.29
2018-12-15T01:14:47.341Z,2.28
2018-12-15T01:16:40.322Z,2.22
2018-12-15T01:17:40.357Z,2.25
2018-12-15T01:19:33.327Z,2.32
2018-12-15T01:20:33.378Z,2.28
2018-12-15T01:22:26.356Z,2.29
2018-12-15T01:23:26.411Z,2.26
2018-12-15T01:25:19.384Z,2.24
2018-12-15T01:26:19.436Z,2.31
2018-12-15T01:28:12.415Z,2.31
2018-12-15T01:29:12.461Z,2.24
2018-12-15T01:31:05.438Z,2.26
2018-12-15T01:32:05.491Z,2.20
2018-12-15T01:33:58.460Z,2.20
2018-12-15T01:34:58.504Z,2.24
2018-12-15T01:36:51.480Z,2.24
2018-12-15T01:37:51.530Z,2.25
2018-12-15T01:39:45.505Z,2.25
2018-12-15T01:40:45.554Z,2.26
2018-12-15T01:42:38.543Z,2.25
2018-12-15T01:43:38.590Z,2.29
2018-12-15T01:45:31.563Z,2.22
2018-12-15T01:46:31.619Z,2.14
2018-12-15T01:48:25.104Z,2.18
2018-12-15T01:49:25.157Z,2.14
2018-12-15T01:51:18.117Z,2.20
2018-12-15T01:52:18.169Z,2.14
2018-12-15T01:54:11.146Z,2.15
2018-12-15T01:55:11.194Z,2.13
2018-12-15T01:57:04.181Z,2.14
2018-12-15T01:58:04.226Z,2.15
2018-12-15T01:59:57.203Z,2.15
2018-12-15T02:00:57.250Z,2.20
2018-12-15T02:02:50.237Z,2.18
2018-12-15T02:03:50.282Z,2.18
2018-12-15T02:05:43.255Z,2.18
2018-12-15T02:06:43.306Z,2.22
2018-12-15T02:08:36.312Z,2.22
2018-12-15T02:09:36.337Z,2.24
2018-12-15T02:11:29.310Z,2.25
2018-12-15T02:12:29.363Z,2.24
2018-12-15T02:14:22.350Z,2.20
2018-12-15T02:15:22.401Z,2.18
2018-12-15T02:17:15.389Z,2.14
2018-12-15T02:18:15.426Z,2.13
2018-12-15T02:20:08.400Z,2.17
2018-12-15T02:21:08.607Z,2.11
2018-12-15T02:23:01.453Z,2.14
2018-12-15T02:24:10.142Z,2.13
2018-12-15T02:25:54.468Z,2.14
2018-12-15T02:26:54.530Z,2.08
2018-12-15T02:28:47.504Z,2.15
2018-12-15T02:29:47.549Z,2.07
2018-12-15T02:31:41.035Z,2.18
2018-12-15T02:32:41.075Z,2.14
2018-12-15T02:34:34.052Z,2.13
2018-12-15T02:35:34.104Z,2.15
2018-12-15T02:37:27.076Z,2.13
2018-12-15T02:38:27.122Z,2.04
2018-12-15T02:40:20.092Z,2.14
2018-12-15T02:41:20.144Z,2.02
2018-12-15T02:43:13.121Z,2.04
2018-12-15T02:44:13.171Z,2.06
2018-12-15T02:46:06.141Z,2.07
2018-12-15T02:47:06.200Z,2.14
2018-12-15T02:48:59.177Z,2.13
2018-12-15T02:49:59.243Z,2.02
2018-12-15T02:51:52.196Z,2.07
2018-12-15T02:52:52.258Z,2.08
2018-12-15T02:54:45.256Z,2.02
2018-12-15T02:55:45.282Z,2.14
2018-12-15T02:57:38.495Z,2.08
2018-12-15T02:58:38.516Z,2.07
2018-12-15T03:00:31.495Z,2.08
2018-12-15T03:01:31.542Z,2.07
2018-12-15T03:03:24.579Z,2.02
2018-12-15T03:04:24.567Z,2.06
2018-12-15T03:06:17.542Z,2.06
2018-12-15T03:07:17.596Z,2.00
2018-12-15T03:09:10.658Z,2.04
2018-12-15T03:10:10.682Z,2.00
2018-12-15T03:12:03.694Z,2.02
2018-12-15T03:13:03.703Z,1.97
2018-12-15T03:14:56.678Z,2.10
2018-12-15T03:15:56.728Z,2.04
2018-12-15T03:17:49.705Z,2.02
2018-12-15T03:18:49.755Z,2.06
2018-12-15T03:20:42.722Z,2.08
2018-12-15T03:21:42.775Z,2.08
2018-12-15T03:23:35.756Z,2.02
2018-12-15T03:24:35.800Z,2.02
2018-12-15T03:26:28.819Z,2.00
2018-12-15T03:27:28.827Z,2.02
2018-12-15T03:29:21.828Z,2.02
2018-12-15T03:30:21.855Z,2.04
2018-12-15T03:32:14.839Z,2.08
2018-12-15T03:33:14.877Z,2.02
2018-12-15T03:35:07.848Z,2.08
2018-12-15T03:36:07.901Z,2.04
2018-12-15T03:38:00.887Z,2.00
2018-12-15T03:39:00.928Z,1.94
2018-12-15T03:40:53.905Z,2.02
2018-12-15T03:41:53.977Z,2.07
2018-12-15T03:43:46.945Z,2.10
2018-12-15T03:44:46.995Z,2.06
2018-12-15T03:46:39.959Z,2.02
2018-12-15T03:47:40.016Z,2.06
2018-12-15T03:49:32.994Z,2.07
2018-12-15T03:50:33.054Z,2.02
2018-12-15T03:52:26.020Z,1.95
2018-12-15T03:53:26.068Z,2.02
2018-12-15T03:55:19.047Z,1.94
2018-12-15T03:56:19.094Z,2.02
2018-12-15T03:58:12.077Z,1.92
2018-12-15T03:59:12.119Z,1.92
2018-12-15T04:01:05.127Z,1.94
2018-12-15T04:02:05.164Z,2.00
2018-12-15T04:03:58.137Z,2.02
2018-12-15T04:04:58.188Z,1.99
2018-12-15T04:06:51.177Z,1.95
2018-12-15T04:07:51.212Z,1.95
2018-12-15T04:09:44.208Z,1.95
2018-12-15T04:10:44.287Z,2.02
2018-12-15T04:12:37.230Z,1.94
2018-12-15T04:13:37.304Z,1.91
2018-12-15T04:15:30.266Z,1.92
2018-12-15T04:16:30.315Z,1.91
2018-12-15T04:18:23.288Z,1.95
2018-12-15T04:19:23.334Z,1.94
2018-12-15T04:21:16.313Z,1.95
2018-12-15T04:22:16.371Z,1.95
2018-12-15T04:24:09.356Z,1.92
2018-12-15T04:25:09.392Z,1.92
2018-12-15T04:27:02.365Z,1.92
2018-12-15T04:28:02.421Z,1.91
2018-12-15T04:29:55.396Z,1.95
2018-12-15T04:30:55.572Z,1.92
2018-12-15T04:32:48.425Z,1.92
2018-12-15T04:33:48.478Z,1.92
2018-12-15T04:35:41.450Z,1.94
2018-12-15T04:36:41.499Z,1.91
2018-12-15T04:38:34.488Z,1.89
2018-12-15T04:39:34.533Z,1.84
2018-12-15T04:41:27.506Z,1.89
2018-12-15T04:42:27.558Z,1.87
2018-12-15T04:44:20.549Z,1.89
2018-12-15T04:45:20.653Z,1.91
2018-12-15T04:47:13.564Z,1.94
2018-12-15T04:48:13.658Z,1.92
2018-12-15T04:50:06.596Z,1.94
2018-12-15T04:51:06.642Z,1.91
2018-12-15T04:52:59.618Z,1.89
2018-12-15T04:53:59.669Z,1.89
2018-12-15T04:55:52.650Z,1.92
2018-12-15T04:56:52.697Z,1.89
2018-12-15T04:58:45.891Z,2.02
2018-12-15T04:59:45.936Z,2.06
2018-12-15T05:01:38.912Z,2.06
2018-12-15T05:02:43.856Z,2.17
2018-12-15T05:04:31.934Z,2.14
2018-12-15T05:05:31.980Z,2.07
2018-12-15T05:07:24.949Z,2.07
2018-12-15T05:08:25.002Z,2.06
2018-12-15T05:10:18.002Z,2.17
2018-12-15T05:11:18.023Z,2.14
2018-12-15T05:13:10.992Z,2.24
2018-12-15T05:14:11.057Z,2.26
2018-12-15T05:16:04.045Z,2.32
2018-12-15T05:17:04.073Z,2.26
2018-12-15T05:18:57.052Z,2.32
2018-12-15T05:19:57.097Z,2.32
2018-12-15T05:21:50.089Z,2.26
2018-12-15T05:22:50.126Z,2.25
2018-12-15T05:24:43.631Z,2.25
2018-12-15T05:25:43.664Z,2.24
2018-12-15T05:27:36.640Z,2.15
2018-12-15T05:28:36.693Z,2.24
2018-12-15T05:30:29.675Z,2.13
2018-12-15T05:31:29.724Z,2.13
2018-12-15T05:33:22.691Z,2.13
2018-12-15T05:34:22.744Z,2.17
2018-12-15T05:36:15.722Z,2.20
2018-12-15T05:37:15.769Z,2.14
2018-12-15T05:39:08.741Z,2.17
2018-12-15T05:40:08.799Z,2.11
2018-12-15T05:42:01.770Z,2.13
2018-12-15T05:43:01.816Z,2.15
2018-12-15T05:44:54.798Z,2.18
2018-12-15T05:45:54.840Z,2.13
2018-12-15T05:47:47.811Z,2.17
2018-12-15T05:48:47.869Z,2.24
2018-12-15T05:50:40.842Z,2.26
2018-12-15T05:51:40.910Z,2.13
2018-12-15T05:53:33.858Z,2.22
2018-12-15T05:54:33.923Z,2.14
2018-12-15T05:56:26.894Z,2.17
2018-12-15T05:57:26.977Z,2.25
2018-12-15T05:59:19.921Z,2.25
2018-12-15T06:00:19.963Z,2.31
2018-12-15T06:02:12.949Z,2.29
2018-12-15T06:03:12.987Z,2.28
2018-12-15T06:05:05.966Z,2.26
2018-12-15T06:06:06.007Z,2.26
2018-12-15T06:07:58.989Z,2.31
2018-12-15T06:08:59.040Z,2.26
2018-12-15T06:10:52.019Z,2.32
2018-12-15T06:11:52.066Z,2.25
2018-12-15T06:13:45.042Z,2.33
2018-12-15T06:14:45.094Z,2.32
2018-12-15T06:16:38.071Z,2.39
2018-12-15T06:17:38.112Z,2.29
2018-12-15T06:19:31.090Z,2.26
2018-12-15T06:20:31.142Z,2.38
2018-12-15T06:22:24.125Z,2.32
2018-12-15T06:23:24.173Z,2.33
2018-12-15T06:25:17.675Z,2.42
2018-12-15T06:26:17.710Z,2.39
2018-12-15T06:28:10.682Z,2.38
2018-12-15T06:29:10.752Z,2.35
2018-12-15T06:31:03.713Z,2.31
2018-12-15T06:32:03.759Z,2.39
2018-12-15T06:33:56.735Z,2.39
2018-12-15T06:34:56.789Z,2.38
2018-12-15T06:36:49.766Z,2.35
2018-12-15T06:37:49.812Z,2.35
2018-12-15T06:39:42.801Z,2.36
2018-12-15T06:40:42.866Z,2.38
2018-12-15T06:42:35.813Z,2.39
2018-12-15T06:43:35.860Z,2.32
2018-12-15T06:45:28.854Z,2.43
2018-12-15T06:46:28.881Z,2.35
2018-12-15T06:48:21.854Z,2.36
2018-12-15T06:49:21.908Z,2.29
2018-12-15T06:51:14.882Z,2.29
2018-12-15T06:52:14.934Z,2.28
2018-12-15T06:54:07.903Z,2.29
2018-12-15T06:55:07.954Z,2.38
2018-12-15T06:57:00.949Z,2.33
2018-12-15T06:58:00.978Z,2.31
2018-12-15T06:59:53.956Z,2.29
2018-12-15T07:00:54.007Z,2.33
2018-12-15T07:02:46.994Z,2.28
2018-12-15T07:03:47.039Z,2.32
2018-12-15T07:05:40.049Z,2.33
2018-12-15T07:06:40.082Z,2.35
2018-12-15T07:08:33.127Z,2.36
2018-12-15T07:09:33.110Z,2.29
2018-12-15T07:11:26.090Z,2.38
2018-12-15T07:12:26.145Z,2.39
2018-12-15T07:14:19.634Z,2.43
2018-12-15T07:15:19.679Z,2.42
2018-12-15T07:17:12.658Z,2.39
2018-12-15T07:18:12.719Z,2.33
2018-12-15T07:20:05.866Z,2.43
2018-12-15T07:21:06.049Z,2.49
2018-12-15T07:22:59.764Z,2.36
2018-12-15T07:23:59.800Z,2.39
2018-12-15T07:25:52.769Z,2.33
2018-12-15T07:26:52.822Z,2.42
2018-12-15T07:28:45.811Z,2.44
2018-12-15T07:29:45.850Z,2.32
2018-12-15T07:31:38.868Z,2.39
2018-12-15T07:32:38.921Z,2.32
2018-12-15T07:34:31.906Z,2.38
2018-12-15T07:35:31.955Z,2.35
2018-12-15T07:37:24.932Z,2.28
2018-12-15T07:38:24.981Z,2.36
2018-12-15T07:40:17.958Z,2.33
2018-12-15T07:41:18.271Z,2.31
2018-12-15T07:43:10.983Z,2.36
2018-12-15T07:44:12.012Z,2.32
2018-12-15T07:46:04.001Z,2.28
2018-12-15T07:47:04.052Z,2.26
2018-12-15T07:48:57.062Z,2.32
2018-12-15T07:49:57.093Z,2.33
2018-12-15T07:51:50.066Z,2.22
2018-12-15T07:52:50.129Z,2.31
2018-12-15T07:54:43.094Z,2.25
2018-12-15T07:55:43.140Z,2.31
2018-12-15T07:57:36.117Z,2.33
2018-12-15T07:58:36.177Z,2.28
2018-12-15T08:00:29.319Z,2.25
2018-12-15T08:01:29.270Z,2.29
2018-12-15T08:03:22.195Z,2.33
2018-12-15T08:04:22.377Z,2.29
2018-12-15T08:06:16.284Z,2.33
2018-12-15T08:07:17.235Z,2.33
2018-12-15T08:09:09.248Z,2.29
2018-12-15T08:10:09.413Z,2.24
2018-12-15T08:12:02.246Z,2.29
2018-12-15T08:13:02.301Z,2.33
2018-12-15T08:14:56.812Z,2.29
2018-12-15T08:15:55.331Z,2.25
2018-12-15T08:17:48.316Z,2.24
2018-12-15T08:18:48.372Z,2.26
2018-12-15T08:20:41.354Z,2.35
2018-12-15T08:21:41.400Z,2.26
2018-12-15T08:23:34.370Z,2.28
2018-12-15T08:24:34.434Z,2.32
2018-12-15T08:26:27.404Z,2.31
2018-12-15T08:27:27.459Z,2.31
2018-12-15T08:29:20.428Z,2.35
2018-12-15T08:30:20.481Z,2.38
2018-12-15T08:32:13.973Z,2.36
2018-12-15T08:33:14.023Z,2.38
2018-12-15T08:35:07.522Z,2.36
2018-12-15T08:36:07.075Z,2.33
2018-12-15T08:38:00.031Z,2.29
2018-12-15T08:39:00.083Z,2.32
2018-12-15T08:40:53.079Z,2.35
2018-12-15T08:41:53.120Z,2.35
2018-12-15T08:43:46.093Z,2.36
2018-12-15T08:44:46.154Z,2.32
2018-12-15T08:46:39.122Z,2.31
2018-12-15T08:47:39.165Z,2.35
2018-12-15T08:49:32.134Z,2.42
2018-12-15T08:50:32.187Z,2.38
2018-12-15T08:52:25.188Z,2.33
2018-12-15T08:53:25.234Z,2.36
2018-12-15T08:55:18.252Z,2.38
2018-12-15T08:56:18.306Z,2.32
2018-12-15T08:58:11.324Z,2.35
2018-12-15T08:59:11.333Z,2.43
2018-12-15T09:01:04.834Z,2.44
2018-12-15T09:02:04.361Z,2.36
2018-12-15T09:04:08.954Z,2.35
2018-12-15T09:05:08.997Z,2.39
2018-12-15T09:07:01.978Z,2.47
2018-12-15T09:08:02.146Z,2.44
2018-12-15T09:10:08.700Z,2.46
2018-12-15T09:11:07.723Z,2.54
2018-12-15T09:13:00.669Z,2.47
2018-12-15T09:14:00.717Z,2.44
2018-12-15T09:15:53.701Z,2.56
2018-12-15T09:16:53.753Z,2.50
2018-12-15T09:18:46.745Z,2.53
2018-12-15T09:19:46.791Z,2.60
2018-12-15T09:21:39.782Z,2.50
2018-12-15T09:22:39.818Z,2.51
2018-12-15T09:24:32.797Z,2.51
2018-12-15T09:25:32.885Z,2.64
2018-12-15T09:27:25.827Z,2.54
2018-12-15T09:28:25.860Z,2.60
2018-12-15T09:30:18.846Z,2.65
2018-12-15T09:31:18.899Z,2.67
2018-12-15T09:33:12.393Z,2.67
2018-12-15T09:34:12.432Z,2.62
2018-12-15T09:36:05.421Z,2.56
2018-12-15T09:37:05.457Z,2.67
2018-12-15T09:38:58.465Z,2.65
2018-12-15T09:39:58.500Z,2.65
2018-12-15T09:41:52.307Z,2.68
2018-12-15T09:42:52.355Z,2.67
2018-12-15T09:44:45.341Z,2.62
2018-12-15T09:45:45.386Z,2.65
2018-12-15T09:47:38.373Z,2.68
2018-12-15T09:48:38.436Z,2.72
2018-12-15T09:50:31.395Z,2.71
2018-12-15T09:51:31.449Z,2.69
2018-12-15T09:53:24.430Z,2.61
2018-12-15T09:54:24.481Z,2.72
2018-12-15T09:56:18.457Z,2.79
2018-12-15T09:57:18.517Z,2.74
2018-12-15T09:59:11.502Z,2.77
2018-12-15T10:00:11.549Z,2.72
2018-12-15T10:02:04.527Z,2.72
2018-12-15T10:03:04.573Z,2.77
2018-12-15T10:04:57.550Z,2.83
2018-12-15T10:05:57.615Z,2.83
2018-12-15T10:07:50.589Z,2.67
2018-12-15T10:08:50.631Z,2.69
2018-12-15T10:10:43.606Z,2.83
2018-12-15T10:11:43.653Z,2.79
2018-12-15T10:13:36.645Z,2.79
2018-12-15T10:14:36.697Z,2.77
2018-12-15T10:16:29.668Z,2.75
2018-12-15T10:17:29.751Z,2.71
2018-12-15T10:19:24.475Z,2.77
2018-12-15T10:20:22.745Z,2.77
2018-12-15T10:22:15.728Z,2.79
2018-12-15T10:23:15.776Z,2.79
2018-12-15T10:25:08.756Z,2.79
2018-12-15T10:26:08.808Z,2.74
2018-12-15T10:28:01.790Z,2.79
2018-12-15T10:29:01.834Z,2.75
2018-12-15T10:30:54.801Z,2.82
2018-12-15T10:31:54.864Z,2.82
2018-12-15T10:33:48.355Z,2.74
2018-12-15T10:34:48.411Z,2.74
2018-12-15T10:36:41.367Z,2.75
2018-12-15T10:37:41.417Z,2.77
2018-12-15T10:39:34.393Z,2.80
2018-12-15T10:40:34.445Z,2.83
2018-12-15T10:42:27.417Z,2.75
2018-12-15T10:43:27.484Z,2.80
2018-12-15T10:45:20.462Z,2.68
2018-12-15T10:46:20.507Z,2.72
2018-12-15T10:48:13.494Z,2.72
2018-12-15T10:49:13.547Z,2.79
2018-12-15T10:51:06.513Z,2.71
2018-12-15T10:52:06.568Z,2.69
2018-12-15T10:53:59.544Z,2.71
2018-12-15T10:54:59.595Z,2.71
2018-12-15T10:56:52.587Z,2.65
2018-12-15T10:57:52.623Z,2.85
2018-12-15T10:59:45.594Z,2.75
2018-12-15T11:00:45.640Z,2.71
2018-12-15T11:02:38.614Z,2.67
2018-12-15T11:03:38.669Z,2.69
2018-12-15T11:05:31.674Z,2.72
2018-12-15T11:06:31.708Z,2.68
2018-12-15T11:08:24.697Z,2.67
2018-12-15T11:09:24.740Z,2.68
2018-12-15T11:11:17.708Z,2.67
2018-12-15T11:12:17.767Z,2.80
2018-12-15T11:14:10.755Z,2.75
2018-12-15T11:15:10.796Z,2.75
2018-12-15T11:17:03.787Z,2.85
2018-12-15T11:18:03.832Z,2.83
2018-12-15T11:19:57.335Z,2.93
2018-12-15T11:20:56.855Z,2.92
2018-12-15T11:22:49.849Z,2.92
2018-12-15T11:23:50.863Z,2.89
2018-12-15T11:25:42.894Z,2.82
2018-12-15T11:26:42.939Z,2.89
2018-12-15T11:28:35.896Z,2.92
2018-12-15T11:29:35.945Z,2.98
2018-12-15T11:31:28.952Z,2.98
2018-12-15T11:32:28.971Z,2.98
2018-12-15T11:34:21.954Z,2.89
2018-12-15T11:35:22.002Z,2.80
2018-12-15T11:37:14.978Z,2.77
2018-12-15T11:38:15.030Z,2.80
2018-12-15T11:40:08.052Z,2.85
2018-12-15T11:41:08.061Z,2.86
2018-12-15T11:43:01.031Z,2.74
2018-12-15T11:44:01.134Z,2.82
2018-12-15T11:45:54.065Z,2.67
2018-12-15T11:46:54.110Z,2.60
2018-12-15T11:48:47.096Z,2.69
2018-12-15T11:49:47.143Z,2.72
2018-12-15T11:51:40.129Z,2.69
2018-12-15T11:52:40.185Z,2.67
2018-12-15T11:54:33.212Z,2.62
2018-12-15T11:55:33.209Z,2.72
2018-12-15T11:57:26.185Z,2.69
2018-12-15T11:58:26.250Z,2.64
2018-12-15T12:00:19.220Z,2.54
2018-12-15T12:01:19.271Z,2.56
2018-12-15T12:03:12.241Z,2.62
2018-12-15T12:04:12.296Z,2.64
2018-12-15T12:06:05.270Z,2.53
2018-12-15T12:07:05.315Z,2.68
2018-12-15T12:08:58.303Z,2.61
2018-12-15T12:09:58.353Z,2.65
2018-12-15T12:11:51.328Z,2.71
2018-12-15T12:12:51.379Z,2.65
2018-12-15T12:14:44.440Z,2.67
2018-12-15T12:15:44.412Z,2.72
2018-12-15T12:17:37.386Z,2.50
2018-12-15T12:18:37.438Z,2.57
2018-12-15T12:20:30.418Z,2.50
2018-12-15T12:21:30.464Z,2.71
2018-12-15T12:23:23.449Z,2.53
2018-12-15T12:24:23.498Z,2.56
2018-12-15T12:26:16.485Z,2.56
2018-12-15T12:27:16.540Z,2.62
2018-12-15T12:29:09.534Z,2.61
2018-12-15T12:30:09.564Z,2.57
2018-12-15T12:32:02.559Z,2.64
2018-12-15T12:33:02.596Z,2.56
2018-12-15T12:34:55.575Z,2.56
2018-12-15T12:35:55.624Z,2.56
2018-12-15T12:37:48.589Z,2.53
2018-12-15T12:38:48.640Z,2.51
2018-12-15T12:40:41.626Z,2.62
2018-12-15T12:41:41.672Z,2.50
2018-12-15T12:43:34.649Z,2.61
2018-12-15T12:44:34.697Z,2.50
2018-12-15T12:46:27.684Z,2.54
2018-12-15T12:47:27.727Z,2.51
2018-12-15T12:49:20.713Z,2.56
2018-12-15T12:50:20.760Z,2.51
2018-12-15T12:52:13.733Z,2.54
2018-12-15T12:53:13.791Z,2.62
2018-12-15T12:55:06.766Z,2.57
2018-12-15T12:56:06.810Z,2.53
2018-12-15T12:57:59.781Z,2.53
2018-12-15T12:58:59.832Z,2.57
2018-12-15T13:00:53.315Z,2.51
2018-12-15T13:01:53.363Z,2.62
2018-12-15T13:03:46.336Z,2.64
2018-12-15T13:04:46.386Z,2.62
2018-12-15T13:06:39.363Z,2.68
2018-12-15T13:07:39.407Z,2.69
2018-12-15T13:09:32.395Z,2.68
2018-12-15T13:10:32.434Z,2.54
2018-12-15T13:12:25.409Z,2.51
2018-12-15T13:13:25.461Z,2.50
2018-12-15T13:15:18.473Z,2.53
2018-12-15T13:16:18.517Z,2.67
2018-12-15T13:18:11.496Z,2.64
2018-12-15T13:19:11.550Z,2.50
2018-12-15T13:21:04.536Z,2.60
2018-12-15T13:22:04.575Z,2.62
2018-12-15T13:23:57.543Z,2.62
2018-12-15T13:24:57.598Z,2.62
2018-12-15T13:26:50.592Z,2.61
2018-12-15T13:27:50.629Z,2.56
2018-12-15T13:29:43.613Z,2.54
2018-12-15T13:30:43.655Z,2.65
2018-12-15T13:32:36.644Z,2.50
2018-12-15T13:33:36.684Z,2.53
2018-12-15T13:35:29.663Z,2.69
2018-12-15T13:36:29.711Z,2.56
2018-12-15T13:38:22.703Z,2.57
2018-12-15T13:39:22.769Z,2.51
2018-12-15T13:41:15.719Z,2.56
2018-12-15T13:42:15.770Z,2.62
2018-12-15T13:44:08.747Z,2.62
2018-12-15T13:45:08.792Z,2.50
2018-12-15T13:47:01.772Z,2.56
2018-12-15T13:48:01.825Z,2.44
2018-12-15T13:49:54.805Z,2.46
2018-12-15T13:50:54.852Z,2.49
2018-12-15T13:52:47.823Z,2.33
2018-12-15T13:53:47.879Z,2.42
2018-12-15T13:55:40.854Z,2.47
2018-12-15T13:56:40.898Z,2.44
2018-12-15T13:58:33.888Z,2.49
2018-12-15T13:59:33.925Z,2.50
2018-12-15T14:01:26.902Z,2.44
2018-12-15T14:02:26.956Z,2.39
2018-12-15T14:04:19.931Z,2.33
2018-12-15T14:05:19.975Z,2.35
2018-12-15T14:07:12.951Z,2.44
2018-12-15T14:08:13.019Z,2.39
2018-12-15T14:10:05.984Z,2.39
2018-12-15T14:11:06.028Z,2.38
2018-12-15T14:12:59.006Z,2.29
2018-12-15T14:13:59.055Z,2.28
2018-12-15T14:15:52.523Z,2.33
2018-12-15T14:16:52.579Z,2.26
2018-12-15T14:18:45.558Z,2.36
2018-12-15T14:19:45.605Z,2.26
2018-12-15T14:21:38.575Z,2.29
2018-12-15T14:22:38.629Z,2.31
2018-12-15T14:24:31.614Z,2.39
2018-12-15T14:25:31.657Z,2.36
2018-12-15T14:27:24.639Z,2.32
2018-12-15T14:28:24.683Z,2.42
2018-12-15T14:30:17.660Z,2.25
2018-12-15T14:31:17.734Z,2.39
2018-12-15T14:33:10.691Z,2.31
2018-12-15T14:34:10.732Z,2.25
2018-12-15T14:36:03.712Z,2.36
2018-12-15T14:37:03.757Z,2.35
2018-12-15T14:38:56.744Z,2.24
2018-12-15T14:39:56.795Z,2.26
2018-12-15T14:41:49.775Z,2.35
2018-12-15T14:42:49.818Z,2.38
2018-12-15T14:44:42.797Z,2.32
2018-12-15T14:45:42.842Z,2.36
2018-12-15T14:47:35.815Z,2.39
2018-12-15T14:48:35.866Z,2.25
2018-12-15T14:50:28.844Z,2.31
2018-12-15T14:51:28.890Z,2.36
2018-12-15T14:53:21.859Z,2.25
2018-12-15T14:54:21.912Z,2.28
2018-12-15T14:56:14.896Z,2.25
2018-12-15T14:57:14.932Z,2.24
2018-12-15T14:59:07.927Z,2.29
2018-12-15T15:00:07.966Z,2.29
2018-12-15T15:02:00.941Z,2.26
2018-12-15T15:03:01.015Z,2.26
2018-12-15T15:04:53.967Z,2.20
2018-12-15T15:05:54.012Z,2.29
2018-12-15T15:07:46.984Z,2.15
2018-12-15T15:08:47.040Z,2.24
2018-12-15T15:10:40.030Z,2.18
2018-12-15T15:11:41.316Z,2.20
2018-12-15T15:13:34.647Z,2.20
2018-12-15T15:14:33.103Z,2.22
2018-12-15T15:16:26.612Z,2.18
2018-12-15T15:17:26.121Z,2.17
2018-12-15T15:19:19.112Z,2.24
2018-12-15T15:20:19.176Z,2.17
2018-12-15T15:22:12.124Z,2.15
2018-12-15T15:23:12.187Z,2.14
2018-12-15T15:25:05.163Z,2.22
2018-12-15T15:26:05.208Z,2.17
2018-12-15T15:27:58.185Z,2.20
2018-12-15T15:28:58.236Z,2.20
2018-12-15T15:30:51.218Z,2.13
2018-12-15T15:31:51.268Z,2.17
2018-12-15T15:33:44.767Z,2.13
2018-12-15T15:34:44.818Z,2.14
2018-12-15T15:36:38.298Z,2.14
2018-12-15T15:37:38.346Z,2.08
2018-12-15T15:39:31.333Z,2.14
2018-12-15T15:40:31.373Z,2.11
2018-12-15T15:42:24.344Z,2.08
2018-12-15T15:43:24.425Z,2.07
2018-12-15T15:45:17.386Z,2.06
2018-12-15T15:46:17.473Z,2.07
2018-12-15T15:48:10.402Z,2.10
2018-12-15T15:49:10.453Z,2.06
2018-12-15T15:51:03.443Z,2.06
2018-12-15T15:52:03.485Z,2.04
2018-12-15T15:53:56.473Z,2.06
2018-12-15T15:54:56.527Z,2.06
2018-12-15T15:56:49.505Z,2.06
2018-12-15T15:57:49.562Z,2.08
2018-12-15T15:59:42.597Z,2.08
2018-12-15T16:00:42.572Z,2.08
2018-12-15T16:02:35.551Z,2.04
2018-12-15T16:03:35.612Z,2.06
2018-12-15T16:05:28.584Z,2.04
2018-12-15T16:06:28.634Z,1.97
2018-12-15T16:08:21.596Z,2.07
2018-12-15T16:09:21.651Z,2.06
2018-12-15T16:11:14.633Z,2.04
2018-12-15T16:12:14.674Z,2.06
2018-12-15T16:14:07.651Z,1.94
2018-12-15T16:15:07.707Z,1.94
2018-12-15T16:17:00.680Z,1.91
2018-12-15T16:18:00.729Z,1.91
2018-12-15T16:19:53.705Z,1.88
2018-12-15T16:20:53.754Z,1.85
2018-12-15T16:22:46.733Z,1.89
2018-12-15T16:23:46.782Z,1.84
2018-12-15T16:25:39.768Z,1.84
2018-12-15T16:26:39.818Z,1.80
2018-12-15T16:28:32.789Z,1.80
2018-12-15T16:29:32.850Z,1.80
2018-12-15T16:31:25.817Z,1.80
2018-12-15T16:32:25.864Z,1.81
2018-12-15T16:34:19.344Z,1.76
2018-12-15T16:35:19.811Z,1.78
2018-12-15T16:37:12.375Z,1.76
2018-12-15T16:38:12.431Z,1.73
2018-12-15T16:40:05.402Z,1.78
2018-12-15T16:41:05.446Z,1.78
2018-12-15T16:42:58.422Z,1.73
2018-12-15T16:43:58.470Z,1.66
2018-12-15T16:45:52.003Z,1.70
2018-12-15T16:46:52.019Z,1.74
2018-12-15T16:48:44.999Z,1.73
2018-12-15T16:49:45.051Z,1.66
2018-12-15T16:51:38.031Z,1.70
2018-12-15T16:52:38.074Z,1.67
2018-12-15T16:54:31.062Z,1.59
2018-12-15T16:55:31.100Z,1.67
2018-12-15T16:57:24.070Z,1.50
2018-12-15T16:58:24.121Z,1.50
2018-12-15T17:00:17.094Z,1.52
2018-12-15T17:01:17.146Z,1.52
2018-12-15T17:03:10.132Z,1.48
2018-12-15T17:04:10.173Z,1.50
2018-12-15T17:06:03.150Z,1.45
2018-12-15T17:07:03.190Z,1.48
2018-12-15T17:08:56.160Z,1.49
2018-12-15T17:09:56.213Z,1.48
2018-12-15T17:11:49.188Z,1.53
2018-12-15T17:12:49.232Z,1.44
2018-12-15T17:14:42.205Z,1.49
2018-12-15T17:15:42.260Z,1.48
2018-12-15T17:17:35.240Z,1.55
2018-12-15T17:18:35.285Z,1.44
2018-12-15T17:20:28.269Z,1.49
2018-12-15T17:21:28.318Z,1.50
2018-12-15T17:23:21.294Z,1.35
2018-12-15T17:24:21.345Z,1.38
2018-12-15T17:26:14.343Z,1.41
2018-12-15T17:27:14.367Z,1.37
2018-12-15T17:29:07.340Z,1.24
2018-12-15T17:30:07.390Z,1.28
2018-12-15T17:32:00.370Z,1.23
2018-12-15T17:33:00.415Z,1.19
2018-12-15T17:34:53.387Z,1.17
2018-12-15T17:35:53.439Z,1.12
2018-12-15T17:37:46.420Z,1.16
2018-12-15T17:38:46.466Z,1.13
2018-12-15T17:40:39.442Z,1.10
2018-12-15T17:41:39.486Z,1.05
2018-12-15T17:43:32.459Z,1.13
2018-12-15T17:44:32.513Z,1.16
2018-12-15T17:46:25.486Z,0.99
2018-12-15T17:47:25.534Z,0.96
2018-12-15T17:49:18.504Z,0.98
2018-12-15T17:50:18.581Z,1.01
2018-12-15T17:52:11.534Z,0.96
2018-12-15T17:53:11.579Z,0.98
2018-12-15T17:55:04.548Z,0.91
2018-12-15T17:56:04.599Z,0.86
2018-12-15T17:57:57.585Z,0.86
2018-12-15T17:58:57.627Z,0.91
2018-12-15T18:00:50.604Z,0.83
2018-12-15T18:01:50.647Z,0.86
2018-12-15T18:03:43.619Z,0.84
2018-12-15T18:04:43.668Z,0.76
2018-12-15T18:06:36.652Z,0.76
2018-12-15T18:07:36.700Z,0.77
2018-12-15T18:09:29.681Z,0.77
2018-12-15T18:10:29.773Z,0.69
2018-12-15T18:12:22.723Z,0.69
2018-12-15T18:13:22.757Z,0.68
2018-12-15T18:15:15.737Z,0.66
2018-12-15T18:16:15.781Z,0.65
2018-12-15T18:18:08.758Z,0.65
2018-12-15T18:19:08.910Z,0.65
2018-12-15T18:21:01.783Z,0.68
2018-12-15T18:22:01.836Z,0.63
2018-12-15T18:23:54.803Z,0.63
2018-12-15T18:24:54.857Z,0.60
2018-12-15T18:26:47.829Z,0.63
2018-12-15T18:27:48.483Z,0.60
2018-12-15T18:29:40.856Z,0.62
2018-12-15T18:30:40.899Z,0.58
2018-12-15T18:32:33.881Z,0.58
2018-12-15T18:33:37.007Z,0.52
2018-12-15T18:35:26.884Z,0.56
2018-12-15T18:36:27.993Z,0.47
2018-12-15T18:38:19.917Z,0.41
2018-12-15T18:39:19.963Z,0.43
2018-12-15T18:41:12.941Z,0.41
2018-12-15T18:42:12.985Z,0.36
2018-12-15T18:44:05.953Z,0.46
2018-12-15T18:45:06.008Z,0.41
2018-12-15T18:46:58.980Z,0.36
2018-12-15T18:47:59.025Z,0.31
2018-12-15T18:49:51.997Z,0.37
2018-12-15T18:50:52.054Z,0.34
2018-12-15T18:52:45.042Z,0.37
2018-12-15T18:53:45.092Z,0.37
2018-12-15T18:55:38.052Z,0.32
2018-12-15T18:56:38.108Z,0.23
2018-12-15T18:58:31.107Z,0.26
2018-12-15T18:59:31.143Z,0.21
2018-12-15T19:01:24.118Z,0.25
2018-12-15T19:02:24.161Z,0.26
2018-12-15T19:04:17.130Z,0.28
2018-12-15T19:05:17.183Z,0.21
2018-12-15T19:07:10.152Z,0.23
2018-12-15T19:08:10.201Z,0.21
2018-12-15T19:10:03.180Z,0.19
2018-12-15T19:11:03.238Z,0.22
2018-12-15T19:12:56.207Z,0.19